Terminal Aerodrome Forecast
Issued by NWS

Home | Current Version | Previous Version | Text Only | Print | Product List | Glossary On
Versions: 1 2 3 4 5 6 7 8 9 10 11 12 13
000
FTUS45 KPSR 191100
TAFIPL
TAF
KIPL 191125Z 1912/2012 27012KT P6SM SKC
     FM191600 27007KT P6SM SKC
     FM192100 27004KT P6SM SKC=

USA.gov is the U.S. government's official web portal to all federal, state and local government web resources and services.